sensor_id;sensor_type;location;lat;lon;timestamp;temperature;humidity
23717;DHT22;22094;52.130;5.598;2023-02-28T00:00:13;0.60;99.90
23717;DHT22;22094;52.130;5.598;2023-02-28T00:02:43;0.30;99.90
23717;DHT22;22094;52.130;5.598;2023-02-28T00:05:11;0.40;99.90
23717;DHT22;22094;52.130;5.598;2023-02-28T00:07:37;1.20;99.90
23717;DHT22;22094;52.130;5.598;2023-02-28T00:10:05;0.50;99.90
23717;DHT22;22094;52.130;5.598;2023-02-28T00:12:31;0.50;99.90
23717;DHT22;22094;52.130;5.598;2023-02-28T00:14:57;0.60;99.90
23717;DHT22;22094;52.130;5.598;2023-02-28T00:17:23;0.60;99.90
23717;DHT22;22094;52.130;5.598;2023-02-28T00:19:49;0.70;99.90
23717;DHT22;22094;52.130;5.598;2023-02-28T00:22:20;0.70;99.90
23717;DHT22;22094;52.130;5.598;2023-02-28T00:24:46;0.80;99.90
23717;DHT22;22094;52.130;5.598;2023-02-28T00:27:13;0.90;99.90
23717;DHT22;22094;52.130;5.598;2023-02-28T00:29:38;0.90;99.90
23717;DHT22;22094;52.130;5.598;2023-02-28T00:32:05;1.10;99.90
23717;DHT22;22094;52.130;5.598;2023-02-28T00:34:31;1.20;99.90
23717;DHT22;22094;52.130;5.598;2023-02-28T00:37:05;1.20;99.90
23717;DHT22;22094;52.130;5.598;2023-02-28T00:39:36;1.20;99.90
23717;DHT22;22094;52.130;5.598;2023-02-28T00:42:03;1.20;99.90
23717;DHT22;22094;52.130;5.598;2023-02-28T00:44:29;1.20;99.90
23717;DHT22;22094;52.130;5.598;2023-02-28T00:46:54;1.20;99.90
23717;DHT22;22094;52.130;5.598;2023-02-28T00:49:22;1.20;99.90
23717;DHT22;22094;52.130;5.598;2023-02-28T00:51:47;1.30;99.90
23717;DHT22;22094;52.130;5.598;2023-02-28T00:54:13;1.40;99.90
23717;DHT22;22094;52.130;5.598;2023-02-28T00:56:38;1.40;99.90
23717;DHT22;22094;52.130;5.598;2023-02-28T00:59:04;1.40;99.90
23717;DHT22;22094;52.130;5.598;2023-02-28T01:01:30;1.40;99.90
23717;DHT22;22094;52.130;5.598;2023-02-28T01:03:55;1.40;99.90
23717;DHT22;22094;52.130;5.598;2023-02-28T01:06:21;1.40;99.90
23717;DHT22;22094;52.130;5.598;2023-02-28T01:08:47;1.50;99.90
23717;DHT22;22094;52.130;5.598;2023-02-28T01:11:15;1.50;99.90
23717;DHT22;22094;52.130;5.598;2023-02-28T01:13:42;1.50;99.90
23717;DHT22;22094;52.130;5.598;2023-02-28T01:16:08;1.50;99.90
23717;DHT22;22094;52.130;5.598;2023-02-28T01:18:33;1.60;99.90
23717;DHT22;22094;52.130;5.598;2023-02-28T01:21:07;1.60;99.90
23717;DHT22;22094;52.130;5.598;2023-02-28T01:23:33;1.60;99.90
23717;DHT22;22094;52.130;5.598;2023-02-28T01:26:06;1.60;99.90
23717;DHT22;22094;52.130;5.598;2023-02-28T01:28:32;1.50;99.90
23717;DHT22;22094;52.130;5.598;2023-02-28T01:30:57;1.50;99.90
23717;DHT22;22094;52.130;5.598;2023-02-28T01:33:23;1.60;99.90
23717;DHT22;22094;52.130;5.598;2023-02-28T01:35:49;1.80;99.90
23717;DHT22;22094;52.130;5.598;2023-02-28T01:38:14;1.70;99.90
23717;DHT22;22094;52.130;5.598;2023-02-28T01:40:40;1.60;99.90
23717;DHT22;22094;52.130;5.598;2023-02-28T01:45:50;1.60;99.90
23717;DHT22;22094;52.130;5.598;2023-02-28T01:48:15;1.60;99.90
23717;DHT22;22094;52.130;5.598;2023-02-28T01:50:45;1.70;99.90
23717;DHT22;22094;52.130;5.598;2023-02-28T01:53:15;1.70;99.90
23717;DHT22;22094;52.130;5.598;2023-02-28T01:55:47;1.70;99.90
23717;DHT22;22094;52.130;5.598;2023-02-28T01:58:13;1.70;99.90
23717;DHT22;22094;52.130;5.598;2023-02-28T02:00:38;1.70;99.90
23717;DHT22;22094;52.130;5.598;2023-02-28T02:03:11;1.70;99.90
23717;DHT22;22094;52.130;5.598;2023-02-28T02:05:39;1.80;99.90
23717;DHT22;22094;52.130;5.598;2023-02-28T02:08:08;1.80;99.90
23717;DHT22;22094;52.130;5.598;2023-02-28T02:10:46;2.00;99.90
23717;DHT22;22094;52.130;5.598;2023-02-28T02:18:43;1.90;99.90
23717;DHT22;22094;52.130;5.598;2023-02-28T02:21:29;1.90;99.90
23717;DHT22;22094;52.130;5.598;2023-02-28T02:35:15;2.00;99.90
23717;DHT22;22094;52.130;5.598;2023-02-28T02:37:58;2.00;99.90
23717;DHT22;22094;52.130;5.598;2023-02-28T02:40:42;2.00;99.90
23717;DHT22;22094;52.130;5.598;2023-02-28T02:43:18;2.00;99.90
23717;DHT22;22094;52.130;5.598;2023-02-28T02:46:04;2.00;99.90
23717;DHT22;22094;52.130;5.598;2023-02-28T02:48:34;2.10;99.90
23717;DHT22;22094;52.130;5.598;2023-02-28T02:51:03;2.00;99.90
23717;DHT22;22094;52.130;5.598;2023-02-28T02:54:02;2.10;99.90
23717;DHT22;22094;52.130;5.598;2023-02-28T02:56:28;2.50;99.90
23717;DHT22;22094;52.130;5.598;2023-02-28T02:58:59;2.00;99.90
23717;DHT22;22094;52.130;5.598;2023-02-28T03:01:26;2.00;99.90
23717;DHT22;22094;52.130;5.598;2023-02-28T03:03:57;2.00;99.90
23717;DHT22;22094;52.130;5.598;2023-02-28T03:06:24;2.00;99.90
23717;DHT22;22094;52.130;5.598;2023-02-28T03:08:50;2.00;99.90
23717;DHT22;22094;52.130;5.598;2023-02-28T03:11:16;1.90;99.90
23717;DHT22;22094;52.130;5.598;2023-02-28T03:33:37;1.90;99.90
23717;DHT22;22094;52.130;5.598;2023-02-28T03:36:13;1.90;99.90
23717;DHT22;22094;52.130;5.598;2023-02-28T03:38:56;1.90;99.90
23717;DHT22;22094;52.130;5.598;2023-02-28T03:41:33;1.80;99.90
23717;DHT22;22094;52.130;5.598;2023-02-28T03:44:06;1.80;99.90
23717;DHT22;22094;52.130;5.598;2023-02-28T03:46:36;1.80;99.90
23717;DHT22;22094;52.130;5.598;2023-02-28T03:51:51;1.80;99.90
23717;DHT22;22094;52.130;5.598;2023-02-28T03:54:35;1.80;99.90
23717;DHT22;22094;52.130;5.598;2023-02-28T03:57:10;1.90;99.90
23717;DHT22;22094;52.130;5.598;2023-02-28T03:59:44;1.90;99.90
23717;DHT22;22094;52.130;5.598;2023-02-28T04:02:12;1.80;99.90
23717;DHT22;22094;52.130;5.598;2023-02-28T04:04:38;1.80;99.90
23717;DHT22;22094;52.130;5.598;2023-02-28T04:07:06;1.70;99.90
23717;DHT22;22094;52.130;5.598;2023-02-28T04:09:32;1.50;99.90
23717;DHT22;22094;52.130;5.598;2023-02-28T04:11:58;1.70;99.90
23717;DHT22;22094;52.130;5.598;2023-02-28T04:14:24;1.70;99.90
23717;DHT22;22094;52.130;5.598;2023-02-28T04:16:50;1.70;99.90
23717;DHT22;22094;52.130;5.598;2023-02-28T04:19:16;1.70;99.90
23717;DHT22;22094;52.130;5.598;2023-02-28T04:21:44;1.70;99.90
23717;DHT22;22094;52.130;5.598;2023-02-28T04:24:18;1.70;99.90
23717;DHT22;22094;52.130;5.598;2023-02-28T04:26:46;1.70;99.90
23717;DHT22;22094;52.130;5.598;2023-02-28T04:29:14;1.70;99.90
23717;DHT22;22094;52.130;5.598;2023-02-28T04:31:42;1.70;99.90
23717;DHT22;22094;52.130;5.598;2023-02-28T04:34:08;1.60;99.90
23717;DHT22;22094;52.130;5.598;2023-02-28T04:36:34;1.60;99.90
23717;DHT22;22094;52.130;5.598;2023-02-28T04:38:59;1.60;99.90
23717;DHT22;22094;52.130;5.598;2023-02-28T04:41:25;1.60;99.90
23717;DHT22;22094;52.130;5.598;2023-02-28T04:43:52;1.50;99.90
23717;DHT22;22094;52.130;5.598;2023-02-28T04:46:18;1.50;99.90
23717;DHT22;22094;52.130;5.598;2023-02-28T04:48:44;1.50;99.90
23717;DHT22;22094;52.130;5.598;2023-02-28T04:51:11;2.00;99.90
23717;DHT22;22094;52.130;5.598;2023-02-28T04:53:38;1.50;99.90
23717;DHT22;22094;52.130;5.598;2023-02-28T04:56:05;1.40;99.90
23717;DHT22;22094;52.130;5.598;2023-02-28T04:58:31;1.40;99.90
23717;DHT22;22094;52.130;5.598;2023-02-28T05:03:43;1.40;99.90
23717;DHT22;22094;52.130;5.598;2023-02-28T05:06:10;1.40;99.90
23717;DHT22;22094;52.130;5.598;2023-02-28T05:08:36;1.30;99.90
23717;DHT22;22094;52.130;5.598;2023-02-28T05:11:02;1.30;99.90
23717;DHT22;22094;52.130;5.598;2023-02-28T05:13:28;1.30;99.90
23717;DHT22;22094;52.130;5.598;2023-02-28T05:15:54;1.30;99.90
23717;DHT22;22094;52.130;5.598;2023-02-28T05:18:20;1.20;99.90
23717;DHT22;22094;52.130;5.598;2023-02-28T05:20:45;1.30;99.90
23717;DHT22;22094;52.130;5.598;2023-02-28T05:23:12;1.20;99.90
23717;DHT22;22094;52.130;5.598;2023-02-28T05:25:38;1.20;99.90
23717;DHT22;22094;52.130;5.598;2023-02-28T05:28:04;1.20;99.90
23717;DHT22;22094;52.130;5.598;2023-02-28T05:30:30;1.20;99.90
23717;DHT22;22094;52.130;5.598;2023-02-28T05:32:57;1.20;99.90
23717;DHT22;22094;52.130;5.598;2023-02-28T05:35:24;1.20;99.90
23717;DHT22;22094;52.130;5.598;2023-02-28T05:37:49;1.20;99.90
23717;DHT22;22094;52.130;5.598;2023-02-28T05:40:15;1.20;99.90
23717;DHT22;22094;52.130;5.598;2023-02-28T05:42:41;1.20;99.90
23717;DHT22;22094;52.130;5.598;2023-02-28T05:45:07;1.30;99.90
23717;DHT22;22094;52.130;5.598;2023-02-28T05:47:33;1.30;99.90
23717;DHT22;22094;52.130;5.598;2023-02-28T05:49:59;1.30;99.90
23717;DHT22;22094;52.130;5.598;2023-02-28T05:52:25;1.30;99.90
23717;DHT22;22094;52.130;5.598;2023-02-28T05:54:51;1.30;99.90
23717;DHT22;22094;52.130;5.598;2023-02-28T05:57:16;1.40;99.90
23717;DHT22;22094;52.130;5.598;2023-02-28T05:59:42;1.30;99.90
23717;DHT22;22094;52.130;5.598;2023-02-28T06:02:15;1.40;99.90
23717;DHT22;22094;52.130;5.598;2023-02-28T06:04:42;1.40;99.90
23717;DHT22;22094;52.130;5.598;2023-02-28T06:07:08;1.40;99.90
23717;DHT22;22094;52.130;5.598;2023-02-28T06:09:34;1.40;99.90
23717;DHT22;22094;52.130;5.598;2023-02-28T06:12:02;1.40;99.90
23717;DHT22;22094;52.130;5.598;2023-02-28T06:14:32;1.50;99.90
23717;DHT22;22094;52.130;5.598;2023-02-28T06:16:59;1.50;99.90
23717;DHT22;22094;52.130;5.598;2023-02-28T06:19:26;1.50;99.90
23717;DHT22;22094;52.130;5.598;2023-02-28T06:21:52;1.60;99.90
23717;DHT22;22094;52.130;5.598;2023-02-28T06:24:22;1.60;99.90
23717;DHT22;22094;52.130;5.598;2023-02-28T06:26:48;1.60;99.90
23717;DHT22;22094;52.130;5.598;2023-02-28T06:29:14;1.60;99.90
23717;DHT22;22094;52.130;5.598;2023-02-28T06:31:44;1.60;99.90
23717;DHT22;22094;52.130;5.598;2023-02-28T06:34:10;1.50;99.90
23717;DHT22;22094;52.130;5.598;2023-02-28T06:36:40;1.40;99.90
23717;DHT22;22094;52.130;5.598;2023-02-28T06:39:06;1.40;99.90
23717;DHT22;22094;52.130;5.598;2023-02-28T06:41:32;1.40;99.90
23717;DHT22;22094;52.130;5.598;2023-02-28T06:44:13;1.40;99.90
23717;DHT22;22094;52.130;5.598;2023-02-28T06:46:40;1.40;99.90
23717;DHT22;22094;52.130;5.598;2023-02-28T06:49:07;1.40;99.90
23717;DHT22;22094;52.130;5.598;2023-02-28T06:51:34;1.40;99.90
23717;DHT22;22094;52.130;5.598;2023-02-28T06:54:00;1.40;99.90
23717;DHT22;22094;52.130;5.598;2023-02-28T06:56:26;1.40;99.90
23717;DHT22;22094;52.130;5.598;2023-02-28T06:58:51;1.50;99.90
23717;DHT22;22094;52.130;5.598;2023-02-28T07:01:21;1.50;99.90
23717;DHT22;22094;52.130;5.598;2023-02-28T07:03:50;1.50;99.90
23717;DHT22;22094;52.130;5.598;2023-02-28T07:06:19;1.50;99.90
23717;DHT22;22094;52.130;5.598;2023-02-28T07:08:44;1.50;99.90
23717;DHT22;22094;52.130;5.598;2023-02-28T07:11:10;1.60;99.90
23717;DHT22;22094;52.130;5.598;2023-02-28T07:13:36;1.60;99.90
23717;DHT22;22094;52.130;5.598;2023-02-28T07:16:04;1.70;99.90
23717;DHT22;22094;52.130;5.598;2023-02-28T07:18:31;1.60;99.90
23717;DHT22;22094;52.130;5.598;2023-02-28T07:20:57;1.70;99.90
23717;DHT22;22094;52.130;5.598;2023-02-28T07:23:23;1.70;99.90
23717;DHT22;22094;52.130;5.598;2023-02-28T07:25:50;1.70;99.90
23717;DHT22;22094;52.130;5.598;2023-02-28T07:30:42;3.50;99.90
23717;DHT22;22094;52.130;5.598;2023-02-28T07:35:34;1.80;99.90
23717;DHT22;22094;52.130;5.598;2023-02-28T07:38:00;1.80;99.90
23717;DHT22;22094;52.130;5.598;2023-02-28T07:40:26;1.80;99.90
23717;DHT22;22094;52.130;5.598;2023-02-28T07:42:52;0.70;99.90
23717;DHT22;22094;52.130;5.598;2023-02-28T07:45:17;2.30;99.90
23717;DHT22;22094;52.130;5.598;2023-02-28T07:47:44;3.70;99.90
23717;DHT22;22094;52.130;5.598;2023-02-28T07:50:13;5.00;99.90
23717;DHT22;22094;52.130;5.598;2023-02-28T07:52:39;2.60;99.90
23717;DHT22;22094;52.130;5.598;2023-02-28T07:55:06;5.60;99.90
23717;DHT22;22094;52.130;5.598;2023-02-28T07:57:32;3.10;99.90
23717;DHT22;22094;52.130;5.598;2023-02-28T08:02:24;0.40;99.90
23717;DHT22;22094;52.130;5.598;2023-02-28T08:04:50;2.60;99.90
23717;DHT22;22094;52.130;5.598;2023-02-28T08:07:16;3.00;99.90
23717;DHT22;22094;52.130;5.598;2023-02-28T08:12:09;3.30;99.90
23717;DHT22;22094;52.130;5.598;2023-02-28T08:21:55;0.90;99.90
23717;DHT22;22094;52.130;5.598;2023-02-28T08:26:47;6.60;99.90
23717;DHT22;22094;52.130;5.598;2023-02-28T08:31:38;3.30;99.90
23717;DHT22;22094;52.130;5.598;2023-02-28T08:34:12;5.80;99.90
23717;DHT22;22094;52.130;5.598;2023-02-28T08:36:38;2.50;99.90
23717;DHT22;22094;52.130;5.598;2023-02-28T08:41:30;4.20;99.90
23717;DHT22;22094;52.130;5.598;2023-02-28T08:46:22;4.30;99.90
23717;DHT22;22094;52.130;5.598;2023-02-28T08:48:52;4.50;99.90
23717;DHT22;22094;52.130;5.598;2023-02-28T08:51:18;5.80;99.90
23717;DHT22;22094;52.130;5.598;2023-02-28T08:53:47;8.00;99.90
23717;DHT22;22094;52.130;5.598;2023-02-28T08:56:15;5.40;99.90
23717;DHT22;22094;52.130;5.598;2023-02-28T09:01:19;6.20;99.90
23717;DHT22;22094;52.130;5.598;2023-02-28T09:03:47;5.20;99.90
23717;DHT22;22094;52.130;5.598;2023-02-28T09:06:13;3.20;99.90
23717;DHT22;22094;52.130;5.598;2023-02-28T09:11:06;6.30;99.90
23717;DHT22;22094;52.130;5.598;2023-02-28T09:13:33;2.70;99.90
23717;DHT22;22094;52.130;5.598;2023-02-28T09:16:02;5.10;99.90
23717;DHT22;22094;52.130;5.598;2023-02-28T09:18:28;4.60;99.90
23717;DHT22;22094;52.130;5.598;2023-02-28T09:20:54;5.20;99.90
23717;DHT22;22094;52.130;5.598;2023-02-28T09:25:48;5.30;99.90
23717;DHT22;22094;52.130;5.598;2023-02-28T09:28:14;5.30;99.90
23717;DHT22;22094;52.130;5.598;2023-02-28T09:30:48;4.00;99.90
23717;DHT22;22094;52.130;5.598;2023-02-28T09:38:06;6.50;99.90
23717;DHT22;22094;52.130;5.598;2023-02-28T09:41:19;6.00;99.90
23717;DHT22;22094;52.130;5.598;2023-02-28T09:43:28;6.00;99.90
23717;DHT22;22094;52.130;5.598;2023-02-28T09:46:08;6.50;99.90
23717;DHT22;22094;52.130;5.598;2023-02-28T09:48:41;6.20;99.90
23717;DHT22;22094;52.130;5.598;2023-02-28T09:56:28;6.30;99.90
23717;DHT22;22094;52.130;5.598;2023-02-28T10:02:19;6.10;99.90
23717;DHT22;22094;52.130;5.598;2023-02-28T10:07:06;7.10;99.90
23717;DHT22;22094;52.130;5.598;2023-02-28T10:12:09;6.60;99.90
23717;DHT22;22094;52.130;5.598;2023-02-28T10:14:39;6.80;99.90
23717;DHT22;22094;52.130;5.598;2023-02-28T10:17:27;6.30;99.90
23717;DHT22;22094;52.130;5.598;2023-02-28T10:25:33;6.30;99.90
23717;DHT22;22094;52.130;5.598;2023-02-28T10:28:11;6.60;99.90
23717;DHT22;22094;52.130;5.598;2023-02-28T10:30:44;3.90;99.90
23717;DHT22;22094;52.130;5.598;2023-02-28T10:38:25;6.50;99.90
23717;DHT22;22094;52.130;5.598;2023-02-28T10:41:04;6.60;99.90
23717;DHT22;22094;52.130;5.598;2023-02-28T10:46:16;6.50;99.90
23717;DHT22;22094;52.130;5.598;2023-02-28T10:49:03;6.70;99.90
23717;DHT22;22094;52.130;5.598;2023-02-28T10:51:38;6.80;99.90
23717;DHT22;22094;52.130;5.598;2023-02-28T10:59:22;7.10;99.90
23717;DHT22;22094;52.130;5.598;2023-02-28T11:01:50;7.80;99.90
23717;DHT22;22094;52.130;5.598;2023-02-28T11:06:56;9.80;99.90
23717;DHT22;22094;52.130;5.598;2023-02-28T11:09:33;7.30;99.90
23717;DHT22;22094;52.130;5.598;2023-02-28T11:12:02;7.30;99.90
23717;DHT22;22094;52.130;5.598;2023-02-28T11:19:35;6.70;99.90
23717;DHT22;22094;52.130;5.598;2023-02-28T11:22:05;8.50;99.90
23717;DHT22;22094;52.130;5.598;2023-02-28T11:24:35;6.50;99.90
23717;DHT22;22094;52.130;5.598;2023-02-28T11:29:32;6.80;99.90
23717;DHT22;22094;52.130;5.598;2023-02-28T11:32:16;6.70;99.90
23717;DHT22;22094;52.130;5.598;2023-02-28T11:34:42;7.10;99.90
23717;DHT22;22094;52.130;5.598;2023-02-28T11:37:18;6.90;99.90
23717;DHT22;22094;52.130;5.598;2023-02-28T11:42:27;7.40;99.90
23717;DHT22;22094;52.130;5.598;2023-02-28T11:45:31;7.00;99.90
23717;DHT22;22094;52.130;5.598;2023-02-28T11:48:24;6.80;99.90
23717;DHT22;22094;52.130;5.598;2023-02-28T11:53:51;6.90;99.90
23717;DHT22;22094;52.130;5.598;2023-02-28T12:01:36;7.00;99.90
23717;DHT22;22094;52.130;5.598;2023-02-28T12:04:17;7.00;99.90
23717;DHT22;22094;52.130;5.598;2023-02-28T12:07:08;7.00;99.90
23717;DHT22;22094;52.130;5.598;2023-02-28T12:18:14;7.40;99.90
23717;DHT22;22094;52.130;5.598;2023-02-28T12:21:08;7.40;99.90
23717;DHT22;22094;52.130;5.598;2023-02-28T12:23:45;7.30;99.90
23717;DHT22;22094;52.130;5.598;2023-02-28T12:26:41;7.40;99.90
23717;DHT22;22094;52.130;5.598;2023-02-28T12:29:25;7.40;99.90
23717;DHT22;22094;52.130;5.598;2023-02-28T12:31:59;7.40;99.90
23717;DHT22;22094;52.130;5.598;2023-02-28T12:34:46;7.70;99.90
23717;DHT22;22094;52.130;5.598;2023-02-28T12:37:40;7.90;99.90
23717;DHT22;22094;52.130;5.598;2023-02-28T12:40:18;7.90;99.90
23717;DHT22;22094;52.130;5.598;2023-02-28T12:42:51;7.30;99.90
23717;DHT22;22094;52.130;5.598;2023-02-28T12:45:51;7.50;99.90
23717;DHT22;22094;52.130;5.598;2023-02-28T12:48:36;6.80;99.90
23717;DHT22;22094;52.130;5.598;2023-02-28T12:51:03;6.30;99.90
23717;DHT22;22094;52.130;5.598;2023-02-28T12:54:03;7.40;99.90
23717;DHT22;22094;52.130;5.598;2023-02-28T12:57:06;5.40;99.90
23717;DHT22;22094;52.130;5.598;2023-02-28T13:00:02;7.50;99.90
23717;DHT22;22094;52.130;5.598;2023-02-28T13:05:54;7.50;99.90
23717;DHT22;22094;52.130;5.598;2023-02-28T13:11:34;7.60;99.90
23717;DHT22;22094;52.130;5.598;2023-02-28T13:14:05;7.40;99.90
23717;DHT22;22094;52.130;5.598;2023-02-28T13:22:36;7.40;99.90
23717;DHT22;22094;52.130;5.598;2023-02-28T13:28:13;7.50;99.90
23717;DHT22;22094;52.130;5.598;2023-02-28T13:31:05;10.00;99.90
23717;DHT22;22094;52.130;5.598;2023-02-28T13:33:35;7.40;99.90
23717;DHT22;22094;52.130;5.598;2023-02-28T13:44:13;6.10;99.90
23717;DHT22;22094;52.130;5.598;2023-02-28T13:51:52;4.40;99.90
23717;DHT22;22094;52.130;5.598;2023-02-28T13:54:27;7.50;99.90
23717;DHT22;22094;52.130;5.598;2023-02-28T13:57:10;7.80;99.90
23717;DHT22;22094;52.130;5.598;2023-02-28T13:59:50;8.00;99.90
23717;DHT22;22094;52.130;5.598;2023-02-28T14:02:36;7.70;99.90
23717;DHT22;22094;52.130;5.598;2023-02-28T14:07:52;8.00;99.90
23717;DHT22;22094;52.130;5.598;2023-02-28T14:10:28;7.00;99.90
23717;DHT22;22094;52.130;5.598;2023-02-28T14:15:41;7.50;99.90
23717;DHT22;22094;52.130;5.598;2023-02-28T14:18:23;7.40;99.90
23717;DHT22;22094;52.130;5.598;2023-02-28T14:20:56;7.60;99.90
23717;DHT22;22094;52.130;5.598;2023-02-28T14:23:46;7.50;99.90
23717;DHT22;22094;52.130;5.598;2023-02-28T14:32:21;7.50;99.90
23717;DHT22;22094;52.130;5.598;2023-02-28T14:37:44;8.50;99.90
23717;DHT22;22094;52.130;5.598;2023-02-28T14:40:30;7.60;99.90
23717;DHT22;22094;52.130;5.598;2023-02-28T14:42:58;7.90;99.90
23717;DHT22;22094;52.130;5.598;2023-02-28T14:45:27;7.90;99.90
23717;DHT22;22094;52.130;5.598;2023-02-28T14:52:47;7.70;99.90
23717;DHT22;22094;52.130;5.598;2023-02-28T14:55:17;7.80;99.90
23717;DHT22;22094;52.130;5.598;2023-02-28T14:57:57;8.00;99.90
23717;DHT22;22094;52.130;5.598;2023-02-28T15:02:55;8.60;99.90
23717;DHT22;22094;52.130;5.598;2023-02-28T15:05:38;8.60;99.90
23717;DHT22;22094;52.130;5.598;2023-02-28T15:08:17;6.80;99.90
23717;DHT22;22094;52.130;5.598;2023-02-28T15:11:33;9.50;99.90
23717;DHT22;22094;52.130;5.598;2023-02-28T15:13:47;9.40;99.90
23717;DHT22;22094;52.130;5.598;2023-02-28T15:16:22;9.90;99.90
23717;DHT22;22094;52.130;5.598;2023-02-28T15:19:08;12.50;99.90
23717;DHT22;22094;52.130;5.598;2023-02-28T15:21:40;9.40;98.80
23717;DHT22;22094;52.130;5.598;2023-02-28T15:24:13;9.70;98.30
23717;DHT22;22094;52.130;5.598;2023-02-28T15:26:46;11.00;99.90
23717;DHT22;22094;52.130;5.598;2023-02-28T15:29:20;11.80;99.00
23717;DHT22;22094;52.130;5.598;2023-02-28T15:31:50;12.60;99.90
23717;DHT22;22094;52.130;5.598;2023-02-28T15:34:24;8.90;98.80
23717;DHT22;22094;52.130;5.598;2023-02-28T15:36:52;9.70;98.60
23717;DHT22;22094;52.130;5.598;2023-02-28T15:39:24;10.00;97.40
23717;DHT22;22094;52.130;5.598;2023-02-28T15:41:50;10.20;98.50
23717;DHT22;22094;52.130;5.598;2023-02-28T15:44:30;10.20;97.70
23717;DHT22;22094;52.130;5.598;2023-02-28T15:47:20;10.50;96.90
23717;DHT22;22094;52.130;5.598;2023-02-28T15:49:55;10.00;96.70
23717;DHT22;22094;52.130;5.598;2023-02-28T15:52:32;10.20;97.10
23717;DHT22;22094;52.130;5.598;2023-02-28T15:55:12;11.10;97.80
23717;DHT22;22094;52.130;5.598;2023-02-28T15:57:41;10.30;96.80
23717;DHT22;22094;52.130;5.598;2023-02-28T16:00:12;9.40;97.30
23717;DHT22;22094;52.130;5.598;2023-02-28T16:02:39;7.70;96.80
23717;DHT22;22094;52.130;5.598;2023-02-28T16:07:37;9.50;96.90
23717;DHT22;22094;52.130;5.598;2023-02-28T16:10:04;9.60;96.40
23717;DHT22;22094;52.130;5.598;2023-02-28T16:12:32;9.20;95.90
23717;DHT22;22094;52.130;5.598;2023-02-28T16:15:01;9.70;96.50
23717;DHT22;22094;52.130;5.598;2023-02-28T16:17:33;12.50;97.50
23717;DHT22;22094;52.130;5.598;2023-02-28T16:20:00;9.90;97.10
23717;DHT22;22094;52.130;5.598;2023-02-28T16:22:25;9.10;96.60
23717;DHT22;22094;52.130;5.598;2023-02-28T16:24:51;9.10;97.00
23717;DHT22;22094;52.130;5.598;2023-02-28T16:27:36;8.90;96.80
23717;DHT22;22094;52.130;5.598;2023-02-28T16:30:04;9.00;97.40
23717;DHT22;22094;52.130;5.598;2023-02-28T16:32:31;6.60;98.30
23717;DHT22;22094;52.130;5.598;2023-02-28T16:34:57;7.40;99.40
23717;DHT22;22094;52.130;5.598;2023-02-28T16:37:22;6.90;99.90
23717;DHT22;22094;52.130;5.598;2023-02-28T16:39:48;7.00;99.90
23717;DHT22;22094;52.130;5.598;2023-02-28T16:42:23;6.30;99.90
23717;DHT22;22094;52.130;5.598;2023-02-28T16:44:50;3.50;99.90
23717;DHT22;22094;52.130;5.598;2023-02-28T16:47:17;6.10;99.90
23717;DHT22;22094;52.130;5.598;2023-02-28T16:49:43;6.00;99.90
23717;DHT22;22094;52.130;5.598;2023-02-28T16:52:09;5.80;99.90
23717;DHT22;22094;52.130;5.598;2023-02-28T16:54:35;5.60;99.90
23717;DHT22;22094;52.130;5.598;2023-02-28T16:57:01;5.50;99.90
23717;DHT22;22094;52.130;5.598;2023-02-28T16:59:27;5.50;99.90
23717;DHT22;22094;52.130;5.598;2023-02-28T17:01:55;5.50;99.90
23717;DHT22;22094;52.130;5.598;2023-02-28T17:04:24;5.40;99.90
23717;DHT22;22094;52.130;5.598;2023-02-28T17:06:49;5.30;99.90
23717;DHT22;22094;52.130;5.598;2023-02-28T17:09:19;5.20;99.90
23717;DHT22;22094;52.130;5.598;2023-02-28T17:11:45;5.10;99.90
23717;DHT22;22094;52.130;5.598;2023-02-28T17:14:11;5.10;99.90
23717;DHT22;22094;52.130;5.598;2023-02-28T17:16:37;5.00;99.90
23717;DHT22;22094;52.130;5.598;2023-02-28T17:19:11;5.00;99.90
23717;DHT22;22094;52.130;5.598;2023-02-28T17:21:38;4.80;99.90
23717;DHT22;22094;52.130;5.598;2023-02-28T17:24:04;4.70;99.90
23717;DHT22;22094;52.130;5.598;2023-02-28T17:26:30;4.60;99.90
23717;DHT22;22094;52.130;5.598;2023-02-28T17:28:57;4.60;99.90
23717;DHT22;22094;52.130;5.598;2023-02-28T17:31:23;4.50;99.90
23717;DHT22;22094;52.130;5.598;2023-02-28T17:33:49;4.50;99.90
23717;DHT22;22094;52.130;5.598;2023-02-28T17:36:24;4.40;99.90
23717;DHT22;22094;52.130;5.598;2023-02-28T17:38:51;4.20;99.90
23717;DHT22;22094;52.130;5.598;2023-02-28T17:41:18;4.20;99.90
23717;DHT22;22094;52.130;5.598;2023-02-28T17:43:44;4.10;99.90
23717;DHT22;22094;52.130;5.598;2023-02-28T17:46:21;4.10;99.90
23717;DHT22;22094;52.130;5.598;2023-02-28T17:48:48;4.00;99.90
23717;DHT22;22094;52.130;5.598;2023-02-28T17:51:14;3.80;99.90
23717;DHT22;22094;52.130;5.598;2023-02-28T17:53:41;3.80;99.90
23717;DHT22;22094;52.130;5.598;2023-02-28T17:56:15;3.70;99.90
23717;DHT22;22094;52.130;5.598;2023-02-28T17:58:41;3.60;99.90
23717;DHT22;22094;52.130;5.598;2023-02-28T18:01:07;3.50;99.90
23717;DHT22;22094;52.130;5.598;2023-02-28T18:03:33;3.40;99.90
23717;DHT22;22094;52.130;5.598;2023-02-28T18:05:59;3.30;99.90
23717;DHT22;22094;52.130;5.598;2023-02-28T18:08:25;3.30;99.90
23717;DHT22;22094;52.130;5.598;2023-02-28T18:10:51;3.30;99.90
23717;DHT22;22094;52.130;5.598;2023-02-28T18:13:17;3.40;99.90
23717;DHT22;22094;52.130;5.598;2023-02-28T18:15:42;3.20;99.90
23717;DHT22;22094;52.130;5.598;2023-02-28T18:18:08;3.20;99.90
23717;DHT22;22094;52.130;5.598;2023-02-28T18:20:34;3.10;99.90
23717;DHT22;22094;52.130;5.598;2023-02-28T18:23:00;2.90;99.90
23717;DHT22;22094;52.130;5.598;2023-02-28T18:25:26;3.00;99.90
23717;DHT22;22094;52.130;5.598;2023-02-28T18:27:52;3.00;99.90
23717;DHT22;22094;52.130;5.598;2023-02-28T18:30:28;3.00;99.90
23717;DHT22;22094;52.130;5.598;2023-02-28T18:32:56;3.30;99.90
23717;DHT22;22094;52.130;5.598;2023-02-28T18:35:23;2.90;99.90
23717;DHT22;22094;52.130;5.598;2023-02-28T18:38:17;2.80;99.90
23717;DHT22;22094;52.130;5.598;2023-02-28T18:40:55;2.70;99.90
23717;DHT22;22094;52.130;5.598;2023-02-28T18:43:20;2.80;99.90
23717;DHT22;22094;52.130;5.598;2023-02-28T18:45:46;2.70;99.90
23717;DHT22;22094;52.130;5.598;2023-02-28T18:48:11;2.70;99.90
23717;DHT22;22094;52.130;5.598;2023-02-28T18:50:39;2.70;99.90
23717;DHT22;22094;52.130;5.598;2023-02-28T18:53:06;2.60;99.90
23717;DHT22;22094;52.130;5.598;2023-02-28T18:55:32;2.50;99.90
23717;DHT22;22094;52.130;5.598;2023-02-28T18:57:58;2.50;99.90
23717;DHT22;22094;52.130;5.598;2023-02-28T19:00:24;2.40;99.90
23717;DHT22;22094;52.130;5.598;2023-02-28T19:02:51;2.20;99.90
23717;DHT22;22094;52.130;5.598;2023-02-28T19:05:17;1.90;99.90
23717;DHT22;22094;52.130;5.598;2023-02-28T19:07:44;1.70;99.90
23717;DHT22;22094;52.130;5.598;2023-02-28T19:10:10;1.60;99.90
23717;DHT22;22094;52.130;5.598;2023-02-28T19:12:36;1.50;99.90
23717;DHT22;22094;52.130;5.598;2023-02-28T19:15:04;1.40;99.90
23717;DHT22;22094;52.130;5.598;2023-02-28T19:17:30;1.30;99.90
23717;DHT22;22094;52.130;5.598;2023-02-28T19:19:56;1.30;99.90
23717;DHT22;22094;52.130;5.598;2023-02-28T19:22:22;1.20;99.90